Time,TemperatureF,DewpointF,PressureIn,WindDirection,WindDirectionDegrees,WindSpeedMPH,WindSpeedGustMPH,Humidity,HourlyPrecipIn,Conditions,Clouds,dailyrainin,SolarRadiationWatts/m^2,SoftwareType,DateUTC
2013-06-20 00:09:00,64.8,53.0,30.02,NW,310,0.0,1.0,65,0.00,,,0.00,0,weatherlink.com 1.10,2013-06-20 04:09:00,
2013-06-20 00:24:00,64.2,53.0,30.02,NW,310,0.0,0.0,67,0.00,,,0.00,0,weatherlink.com 1.10,2013-06-20 04:24:00,
2013-06-20 00:39:00,63.7,54.0,30.02,NW,310,0.0,1.0,70,0.00,,,0.00,0,weatherlink.com 1.10,2013-06-20 04:39:00,
2013-06-20 00:54:00,63.1,53.0,30.03,NW,310,0.0,0.0,69,0.00,,,0.00,0,weatherlink.com 1.10,2013-06-20 04:54:00,
2013-06-20 01:09:00,62.7,54.0,30.04,NW,310,0.0,0.0,72,0.00,,,0.00,0,weatherlink.com 1.10,2013-06-20 05:09:00,
2013-06-20 01:24:00,62.1,54.0,30.03,NW,310,0.0,0.0,74,0.00,,,0.00,0,weatherlink.com 1.10,2013-06-20 05:24:00,
2013-06-20 01:39:00,61.7,54.0,30.04,NW,310,0.0,0.0,75,0.00,,,0.00,0,weatherlink.com 1.10,2013-06-20 05:39:00,
2013-06-20 01:54:00,61.1,54.0,30.03,NW,310,0.0,0.0,76,0.00,,,0.00,0,weatherlink.com 1.10,2013-06-20 05:54:00,
2013-06-20 02:09:00,60.8,54.0,30.03,NW,310,0.0,0.0,78,0.00,,,0.00,0,weatherlink.com 1.10,2013-06-20 06:09:00,
2013-06-20 02:24:00,60.4,54.0,30.04,NW,310,0.0,0.0,78,0.00,,,0.00,0,weatherlink.com 1.10,2013-06-20 06:24:00,
2013-06-20 02:39:00,60.3,54.0,30.04,NW,310,0.0,0.0,79,0.00,,,0.00,0,weatherlink.com 1.10,2013-06-20 06:39:00,
2013-06-20 02:54:00,60.0,54.0,30.04,NW,310,0.0,0.0,80,0.00,,,0.00,0,weatherlink.com 1.10,2013-06-20 06:54:00,
2013-06-20 03:09:00,59.8,54.0,30.04,NW,310,0.0,2.0,80,0.00,,,0.00,0,weatherlink.com 1.10,2013-06-20 07:09:00,
2013-06-20 03:24:00,59.8,53.0,30.05,NW,310,0.0,0.0,79,0.00,,,0.00,0,weatherlink.com 1.10,2013-06-20 07:24:00,
2013-06-20 03:39:00,60.3,54.0,30.05,NW,310,0.0,0.0,79,0.00,,,0.00,0,weatherlink.com 1.10,2013-06-20 07:39:00,
2013-06-20 03:54:00,60.4,54.0,30.05,NW,310,0.0,1.0,78,0.00,,,0.00,0,weatherlink.com 1.10,2013-06-20 07:54:00,
2013-06-20 04:09:00,60.5,54.0,30.05,NW,310,0.0,2.0,79,0.00,,,0.00,0,weatherlink.com 1.10,2013-06-20 08:09:00,
2013-06-20 04:24:00,60.7,54.0,30.04,NW,310,2.0,3.0,79,0.00,,,0.00,0,weatherlink.com 1.10,2013-06-20 08:24:00,
2013-06-20 04:39:00,61.1,55.0,30.05,NW,310,0.0,2.0,79,0.00,,,0.00,0,weatherlink.com 1.10,2013-06-20 08:39:00,
2013-06-20 04:54:00,61.2,55.0,30.05,NW,310,0.0,2.0,79,0.00,,,0.00,0,weatherlink.com 1.10,2013-06-20 08:54:00,
2013-06-20 05:09:00,61.0,55.0,30.05,NW,310,1.0,2.0,80,0.00,,,0.00,0,weatherlink.com 1.10,2013-06-20 09:09:00,
2013-06-20 05:24:00,60.7,55.0,30.06,NW,310,0.0,1.0,80,0.00,,,0.00,0,weatherlink.com 1.10,2013-06-20 09:24:00,
2013-06-20 05:39:00,60.5,54.0,30.06,NW,310,1.0,2.0,80,0.00,,,0.00,0,weatherlink.com 1.10,2013-06-20 09:39:00,
2013-06-20 05:54:00,60.2,54.0,30.06,NW,310,0.0,2.0,81,0.00,,,0.00,0,weatherlink.com 1.10,2013-06-20 09:54:00,
2013-06-20 06:09:00,60.0,55.0,30.06,NW,310,0.0,2.0,82,0.00,,,0.00,5,weatherlink.com 1.10,2013-06-20 10:09:00,
2013-06-20 06:24:00,60.0,55.0,30.06,NW,310,0.0,1.0,82,0.00,,,0.00,14,weatherlink.com 1.10,2013-06-20 10:24:00,
2013-06-20 06:39:00,60.3,55.0,30.07,NW,310,0.0,2.0,82,0.00,,,0.00,26,weatherlink.com 1.10,2013-06-20 10:39:00,
2013-06-20 06:54:00,61.1,55.0,30.06,NW,310,0.0,2.0,80,0.00,,,0.00,49,weatherlink.com 1.10,2013-06-20 10:54:00,
2013-06-20 07:09:00,61.7,55.0,30.06,NW,310,2.0,4.0,78,0.00,,,0.00,67,weatherlink.com 1.10,2013-06-20 11:09:00,
2013-06-20 07:25:00,62.2,55.0,30.07,NW,310,1.0,3.0,78,0.00,,,0.00,97,weatherlink.com 1.10,2013-06-20 11:25:00,
2013-06-20 07:40:00,63.3,56.0,30.07,NW,310,0.0,2.0,76,0.00,,,0.00,123,weatherlink.com 1.10,2013-06-20 11:40:00,
2013-06-20 07:55:00,64.1,56.0,30.07,NW,310,3.0,4.0,74,0.00,,,0.00,193,weatherlink.com 1.10,2013-06-20 11:55:00,
2013-06-20 08:10:00,64.6,56.0,30.08,NW,313,0.0,3.0,74,0.00,,,0.00,178,weatherlink.com 1.10,2013-06-20 12:10:00,
2013-06-20 08:25:00,65.8,57.0,30.07,NW,313,0.0,3.0,72,0.00,,,0.00,163,weatherlink.com 1.10,2013-06-20 12:25:00,
2013-06-20 08:40:00,66.3,57.0,30.08,NW,313,0.0,3.0,72,0.00,,,0.00,306,weatherlink.com 1.10,2013-06-20 12:40:00,
2013-06-20 08:55:00,68.1,58.0,30.07,NW,325,2.0,3.0,69,0.00,,,0.00,223,weatherlink.com 1.10,2013-06-20 12:55:00,
2013-06-20 09:10:00,68.7,58.0,30.08,NW,324,2.0,3.0,68,0.00,,,0.00,197,weatherlink.com 1.10,2013-06-20 13:10:00,
2013-06-20 09:25:00,69.3,58.0,30.09,NW,324,0.0,2.0,68,0.00,,,0.00,193,weatherlink.com 1.10,2013-06-20 13:25:00,
2013-06-20 09:40:00,69.8,58.0,30.09,NW,324,0.0,3.0,66,0.00,,,0.00,283,weatherlink.com 1.10,2013-06-20 13:40:00,
2013-06-20 09:55:00,70.2,58.0,30.09,NW,324,0.0,4.0,66,0.00,,,0.00,248,weatherlink.com 1.10,2013-06-20 13:55:00,
2013-06-20 10:10:00,70.5,59.0,30.10,NW,326,0.0,4.0,66,0.00,,,0.00,302,weatherlink.com 1.10,2013-06-20 14:10:00,
2013-06-20 10:25:00,71.2,59.0,30.09,NW,316,2.0,4.0,65,0.00,,,0.00,338,weatherlink.com 1.10,2013-06-20 14:25:00,
2013-06-20 10:40:00,71.7,60.0,30.08,NW,315,1.0,4.0,66,0.00,,,0.00,457,weatherlink.com 1.10,2013-06-20 14:40:00,
2013-06-20 10:55:00,73.1,61.0,30.09,NW,316,0.0,3.0,65,0.00,,,0.00,406,weatherlink.com 1.10,2013-06-20 14:55:00,
2013-06-20 11:10:00,73.4,61.0,30.09,NW,313,2.0,5.0,65,0.00,,,0.00,566,weatherlink.com 1.10,2013-06-20 15:10:00,
2013-06-20 11:25:00,74.9,62.0,30.08,West,262,1.0,4.0,64,0.00,,,0.00,448,weatherlink.com 1.10,2013-06-20 15:25:00,
2013-06-20 11:40:00,75.2,63.0,30.08,SW,218,1.0,5.0,65,0.00,,,0.00,571,weatherlink.com 1.10,2013-06-20 15:40:00,
2013-06-20 11:55:00,76.8,63.0,30.09,SW,217,1.0,5.0,62,0.00,,,0.00,522,weatherlink.com 1.10,2013-06-20 15:55:00,
2013-06-20 12:10:00,76.6,63.0,30.08,SW,217,0.0,4.0,62,0.00,,,0.00,510,weatherlink.com 1.10,2013-06-20 16:10:00,
2013-06-20 12:25:00,76.9,63.0,30.08,SW,216,0.0,4.0,62,0.00,,,0.00,420,weatherlink.com 1.10,2013-06-20 16:25:00,
2013-06-20 12:40:00,77.5,63.0,30.08,SW,216,0.0,4.0,62,0.00,,,0.00,561,weatherlink.com 1.10,2013-06-20 16:40:00,
2013-06-20 12:55:00,77.6,63.0,30.08,SSW,208,2.0,5.0,62,0.00,,,0.00,432,weatherlink.com 1.10,2013-06-20 16:55:00,
2013-06-20 13:10:00,76.9,63.0,30.07,SSW,208,3.0,6.0,63,0.00,,,0.00,410,weatherlink.com 1.10,2013-06-20 17:10:00,
2013-06-20 13:25:00,77.3,64.0,30.08,SSW,208,1.0,5.0,64,0.00,,,0.00,295,weatherlink.com 1.10,2013-06-20 17:25:00,
2013-06-20 13:40:00,77.1,64.0,30.09,SSW,203,0.0,5.0,64,0.00,,,0.00,258,weatherlink.com 1.10,2013-06-20 17:40:00,
2013-06-20 13:55:00,76.6,65.0,30.08,SSW,203,1.0,5.0,67,0.00,,,0.00,308,weatherlink.com 1.10,2013-06-20 17:55:00,
2013-06-20 14:10:00,76.3,65.0,30.07,SSW,204,1.0,5.0,67,0.00,,,0.00,318,weatherlink.com 1.10,2013-06-20 18:10:00,
2013-06-20 14:25:00,76.7,65.0,30.08,SSW,204,2.0,4.0,68,0.00,,,0.00,533,weatherlink.com 1.10,2013-06-20 18:25:00,
2013-06-20 14:40:00,77.6,66.0,30.07,SSW,204,1.0,4.0,67,0.00,,,0.00,926,weatherlink.com 1.10,2013-06-20 18:40:00,
2013-06-20 14:56:00,79.3,66.0,30.06,South,170,3.0,5.0,64,0.00,,,0.00,879,weatherlink.com 1.10,2013-06-20 18:56:00,
2013-06-20 15:11:00,80.0,66.0,30.06,SE,138,2.0,5.0,62,0.00,,,0.00,904,weatherlink.com 1.10,2013-06-20 19:11:00,
2013-06-20 15:26:00,80.0,66.0,30.06,SE,142,3.0,6.0,62,0.00,,,0.00,478,weatherlink.com 1.10,2013-06-20 19:26:00,
2013-06-20 15:41:00,80.5,65.0,30.06,SE,142,2.0,5.0,59,0.00,,,0.00,322,weatherlink.com 1.10,2013-06-20 19:41:00,
2013-06-20 15:56:00,81.5,65.0,30.06,SE,137,1.0,4.0,57,0.00,,,0.00,401,weatherlink.com 1.10,2013-06-20 19:56:00,
2013-06-20 16:11:00,81.5,65.0,30.05,SE,127,1.0,6.0,57,0.00,,,0.00,956,weatherlink.com 1.10,2013-06-20 20:11:00,
2013-06-20 16:26:00,82.0,64.0,30.05,ESE,122,0.0,5.0,55,0.00,,,0.00,700,weatherlink.com 1.10,2013-06-20 20:26:00,
2013-06-20 16:41:00,81.4,64.0,30.05,ESE,105,1.0,5.0,55,0.00,,,0.00,742,weatherlink.com 1.10,2013-06-20 20:41:00,
2013-06-20 16:56:00,81.5,63.0,30.05,ESE,106,1.0,5.0,53,0.00,,,0.00,315,weatherlink.com 1.10,2013-06-20 20:56:00,
2013-06-20 17:11:00,81.5,63.0,30.04,ESE,106,0.0,3.0,53,0.00,,,0.00,267,weatherlink.com 1.10,2013-06-20 21:11:00,
2013-06-20 17:26:00,81.8,64.0,30.03,ESE,106,3.0,5.0,55,0.00,,,0.00,584,weatherlink.com 1.10,2013-06-20 21:26:00,
2013-06-20 17:41:00,81.6,64.0,30.03,ESE,108,3.0,5.0,56,0.00,,,0.00,531,weatherlink.com 1.10,2013-06-20 21:41:00,
2013-06-20 17:56:00,81.7,64.0,30.02,ESE,116,1.0,8.0,56,0.00,,,0.00,496,weatherlink.com 1.10,2013-06-20 21:56:00,
2013-06-20 18:11:00,82.2,65.0,30.02,ESE,111,1.0,7.0,56,0.00,,,0.00,457,weatherlink.com 1.10,2013-06-20 22:11:00,
2013-06-20 18:26:00,82.1,64.0,30.02,SE,146,1.0,6.0,55,0.00,,,0.00,415,weatherlink.com 1.10,2013-06-20 22:26:00,
2013-06-20 18:41:00,81.8,65.0,30.02,SSE,152,5.0,6.0,56,0.00,,,0.00,373,weatherlink.com 1.10,2013-06-20 22:41:00,
2013-06-20 18:56:00,82.1,65.0,30.02,SSE,162,4.0,5.0,57,0.00,,,0.00,329,weatherlink.com 1.10,2013-06-20 22:56:00,
2013-06-20 19:11:00,82.1,66.0,30.02,SSE,154,2.0,5.0,58,0.00,,,0.00,279,weatherlink.com 1.10,2013-06-20 23:11:00,
2013-06-20 19:26:00,81.4,66.0,30.01,SSE,147,0.0,5.0,59,0.00,,,0.00,211,weatherlink.com 1.10,2013-06-20 23:26:00,
2013-06-20 19:41:00,81.3,66.0,30.02,SE,139,2.0,4.0,61,0.00,,,0.00,188,weatherlink.com 1.10,2013-06-20 23:41:00,
2013-06-20 19:56:00,80.9,67.0,30.02,SE,139,2.0,5.0,62,0.00,,,0.00,141,weatherlink.com 1.10,2013-06-20 23:56:00,
2013-06-20 20:11:00,80.6,67.0,30.02,SE,139,0.0,4.0,64,0.00,,,0.00,104,weatherlink.com 1.10,2013-06-21 00:11:00,
2013-06-20 20:26:00,80.0,67.0,30.01,SE,139,1.0,5.0,64,0.00,,,0.00,70,weatherlink.com 1.10,2013-06-21 00:26:00,
2013-06-20 20:41:00,79.5,67.0,30.01,SE,139,0.0,4.0,65,0.00,,,0.00,44,weatherlink.com 1.10,2013-06-21 00:41:00,
2013-06-20 20:56:00,78.9,67.0,30.01,SE,139,0.0,3.0,67,0.00,,,0.00,21,weatherlink.com 1.10,2013-06-21 00:56:00,
2013-06-20 21:11:00,78.2,67.0,30.01,SE,139,0.0,4.0,69,0.00,,,0.00,9,weatherlink.com 1.10,2013-06-21 01:11:00,
2013-06-20 21:26:00,77.5,67.0,30.02,SE,139,0.0,2.0,70,0.00,,,0.00,0,weatherlink.com 1.10,2013-06-21 01:26:00,
2013-06-20 21:41:00,76.8,67.0,30.01,SE,139,0.0,2.0,71,0.00,,,0.00,0,weatherlink.com 1.10,2013-06-21 01:41:00,
2013-06-20 21:56:00,76.2,67.0,30.02,SE,139,2.0,2.0,73,0.00,,,0.00,0,weatherlink.com 1.10,2013-06-21 01:56:00,
2013-06-20 22:11:00,75.7,66.0,30.02,SE,139,0.0,1.0,73,0.00,,,0.00,0,weatherlink.com 1.10,2013-06-21 02:11:00,
2013-06-20 22:26:00,75.2,66.0,30.03,SE,139,1.0,2.0,74,0.00,,,0.00,0,weatherlink.com 1.10,2013-06-21 02:26:00,
2013-06-20 22:41:00,74.7,66.0,30.04,SE,139,0.0,2.0,75,0.00,,,0.00,0,weatherlink.com 1.10,2013-06-21 02:41:00,
2013-06-20 22:56:00,74.1,66.0,30.03,SE,139,0.0,3.0,75,0.00,,,0.00,0,weatherlink.com 1.10,2013-06-21 02:56:00,
2013-06-20 23:11:00,73.8,66.0,30.04,SE,139,0.0,4.0,76,0.00,,,0.00,0,weatherlink.com 1.10,2013-06-21 03:11:00,
2013-06-20 23:26:00,73.5,66.0,30.04,SE,139,0.0,2.0,76,0.00,,,0.00,0,weatherlink.com 1.10,2013-06-21 03:26:00,
2013-06-20 23:41:00,73.2,66.0,30.04,SE,139,1.0,2.0,77,0.00,,,0.00,0,weatherlink.com 1.10,2013-06-21 03:41:00,
2013-06-20 23:56:00,72.9,66.0,30.04,SE,139,0.0,3.0,78,0.00,,,0.00,0,weatherlink.com 1.10,2013-06-21 03:56:00,